sensor_id;sensor_type;location;lat;lon;timestamp;P1;durP1;ratioP1;P2;durP2;ratioP2
47161;SDS011;32921;53.256;8.198;2024-02-15T00:00:11;373.48;;;342.25;;
47161;SDS011;32921;53.256;8.198;2024-02-15T00:02:37;403.65;;;370.65;;
47161;SDS011;32921;53.256;8.198;2024-02-15T00:05:03;395.35;;;363.20;;
47161;SDS011;32921;53.256;8.198;2024-02-15T00:07:29;367.17;;;338.50;;
47161;SDS011;32921;53.256;8.198;2024-02-15T00:09:55;384.90;;;354.38;;
47161;SDS011;32921;53.256;8.198;2024-02-15T00:12:20;386.77;;;356.15;;
47161;SDS011;32921;53.256;8.198;2024-02-15T00:14:46;398.17;;;366.45;;
47161;SDS011;32921;53.256;8.198;2024-02-15T00:17:12;422.95;;;389.13;;
47161;SDS011;32921;53.256;8.198;2024-02-15T00:19:38;438.83;;;403.73;;
47161;SDS011;32921;53.256;8.198;2024-02-15T00:22:06;366.00;;;336.70;;
47161;SDS011;32921;53.256;8.198;2024-02-15T00:24:32;417.77;;;383.77;;
47161;SDS011;32921;53.256;8.198;2024-02-15T00:26:57;422.92;;;388.65;;
47161;SDS011;32921;53.256;8.198;2024-02-15T00:29:23;413.52;;;379.92;;
47161;SDS011;32921;53.256;8.198;2024-02-15T00:31:51;429.63;;;395.83;;
47161;SDS011;32921;53.256;8.198;2024-02-15T00:34:16;435.60;;;400.08;;
47161;SDS011;32921;53.256;8.198;2024-02-15T00:36:42;352.98;;;324.88;;
47161;SDS011;32921;53.256;8.198;2024-02-15T00:39:09;381.58;;;350.75;;
47161;SDS011;32921;53.256;8.198;2024-02-15T00:41:36;392.33;;;361.77;;
47161;SDS011;32921;53.256;8.198;2024-02-15T00:44:02;419.58;;;385.67;;
47161;SDS011;32921;53.256;8.198;2024-02-15T00:46:28;424.52;;;390.52;;
47161;SDS011;32921;53.256;8.198;2024-02-15T00:48:55;434.00;;;398.60;;
47161;SDS011;32921;53.256;8.198;2024-02-15T00:51:20;418.05;;;384.90;;
47161;SDS011;32921;53.256;8.198;2024-02-15T00:53:46;429.98;;;396.15;;
47161;SDS011;32921;53.256;8.198;2024-02-15T00:56:12;401.77;;;370.27;;
47161;SDS011;32921;53.256;8.198;2024-02-15T00:58:37;373.00;;;343.67;;
47161;SDS011;32921;53.256;8.198;2024-02-15T01:01:03;418.23;;;384.92;;
47161;SDS011;32921;53.256;8.198;2024-02-15T01:03:28;392.13;;;360.77;;
47161;SDS011;32921;53.256;8.198;2024-02-15T01:05:55;400.83;;;369.30;;
47161;SDS011;32921;53.256;8.198;2024-02-15T01:08:21;438.65;;;403.85;;
47161;SDS011;32921;53.256;8.198;2024-02-15T01:10:46;441.73;;;406.88;;
47161;SDS011;32921;53.256;8.198;2024-02-15T01:13:12;434.20;;;398.40;;
47161;SDS011;32921;53.256;8.198;2024-02-15T01:15:38;413.27;;;379.60;;
47161;SDS011;32921;53.256;8.198;2024-02-15T01:18:06;418.15;;;383.85;;
47161;SDS011;32921;53.256;8.198;2024-02-15T01:20:31;435.10;;;400.10;;
47161;SDS011;32921;53.256;8.198;2024-02-15T01:22:57;450.30;;;413.63;;
47161;SDS011;32921;53.256;8.198;2024-02-15T01:25:22;451.42;;;414.30;;
47161;SDS011;32921;53.256;8.198;2024-02-15T01:27:48;443.35;;;407.25;;
47161;SDS011;32921;53.256;8.198;2024-02-15T01:30:14;423.65;;;388.75;;
47161;SDS011;32921;53.256;8.198;2024-02-15T01:32:39;421.35;;;386.65;;
47161;SDS011;32921;53.256;8.198;2024-02-15T01:35:07;484.02;;;444.02;;
47161;SDS011;32921;53.256;8.198;2024-02-15T01:37:35;457.50;;;420.33;;
47161;SDS011;32921;53.256;8.198;2024-02-15T01:40:01;414.80;;;381.27;;
47161;SDS011;32921;53.256;8.198;2024-02-15T01:42:27;451.80;;;413.92;;
47161;SDS011;32921;53.256;8.198;2024-02-15T01:44:53;502.63;;;459.65;;
47161;SDS011;32921;53.256;8.198;2024-02-15T01:47:19;473.20;;;434.15;;
47161;SDS011;32921;53.256;8.198;2024-02-15T01:49:45;450.65;;;413.05;;
47161;SDS011;32921;53.256;8.198;2024-02-15T01:52:13;491.75;;;449.73;;
47161;SDS011;32921;53.256;8.198;2024-02-15T01:54:41;432.15;;;395.90;;
47161;SDS011;32921;53.256;8.198;2024-02-15T01:57:06;439.27;;;400.35;;
47161;SDS011;32921;53.256;8.198;2024-02-15T01:59:32;498.77;;;455.25;;
47161;SDS011;32921;53.256;8.198;2024-02-15T02:01:58;498.98;;;455.95;;
47161;SDS011;32921;53.256;8.198;2024-02-15T02:04:24;492.58;;;450.83;;
47161;SDS011;32921;53.256;8.198;2024-02-15T02:06:49;493.63;;;452.52;;
47161;SDS011;32921;53.256;8.198;2024-02-15T02:09:15;451.30;;;413.85;;
47161;SDS011;32921;53.256;8.198;2024-02-15T02:11:41;515.72;;;473.40;;
47161;SDS011;32921;53.256;8.198;2024-02-15T02:14:09;433.77;;;397.23;;
47161;SDS011;32921;53.256;8.198;2024-02-15T02:16:36;466.25;;;425.52;;
47161;SDS011;32921;53.256;8.198;2024-02-15T02:19:04;517.97;;;473.17;;
47161;SDS011;32921;53.256;8.198;2024-02-15T02:21:33;448.23;;;409.88;;
47161;SDS011;32921;53.256;8.198;2024-02-15T02:24:00;490.05;;;448.73;;
47161;SDS011;32921;53.256;8.198;2024-02-15T02:26:31;511.25;;;468.85;;
47161;SDS011;32921;53.256;8.198;2024-02-15T02:28:57;475.00;;;433.55;;
47161;SDS011;32921;53.256;8.198;2024-02-15T02:31:24;522.03;;;477.80;;
47161;SDS011;32921;53.256;8.198;2024-02-15T02:33:51;492.25;;;449.45;;
47161;SDS011;32921;53.256;8.198;2024-02-15T02:36:18;423.25;;;385.38;;
47161;SDS011;32921;53.256;8.198;2024-02-15T02:38:44;486.02;;;444.13;;
47161;SDS011;32921;53.256;8.198;2024-02-15T02:41:10;532.53;;;486.70;;
47161;SDS011;32921;53.256;8.198;2024-02-15T02:43:38;460.77;;;420.45;;
47161;SDS011;32921;53.256;8.198;2024-02-15T02:46:10;442.67;;;404.95;;
47161;SDS011;32921;53.256;8.198;2024-02-15T02:48:36;492.73;;;449.92;;
47161;SDS011;32921;53.256;8.198;2024-02-15T02:51:02;494.33;;;451.77;;
47161;SDS011;32921;53.256;8.198;2024-02-15T02:53:28;468.42;;;427.85;;
47161;SDS011;32921;53.256;8.198;2024-02-15T02:55:55;477.63;;;436.40;;
47161;SDS011;32921;53.256;8.198;2024-02-15T02:58:21;498.75;;;456.33;;
47161;SDS011;32921;53.256;8.198;2024-02-15T03:00:48;547.92;;;501.90;;
47161;SDS011;32921;53.256;8.198;2024-02-15T03:03:14;503.67;;;460.70;;
47161;SDS011;32921;53.256;8.198;2024-02-15T03:05:47;446.95;;;407.10;;
47161;SDS011;32921;53.256;8.198;2024-02-15T03:08:13;484.58;;;441.83;;
47161;SDS011;32921;53.256;8.198;2024-02-15T03:10:40;447.02;;;407.83;;
47161;SDS011;32921;53.256;8.198;2024-02-15T03:13:06;478.23;;;434.30;;
47161;SDS011;32921;53.256;8.198;2024-02-15T03:15:34;496.63;;;450.70;;
47161;SDS011;32921;53.256;8.198;2024-02-15T03:18:00;467.00;;;423.52;;
47161;SDS011;32921;53.256;8.198;2024-02-15T03:20:25;561.17;;;509.48;;
47161;SDS011;32921;53.256;8.198;2024-02-15T03:22:54;545.90;;;494.40;;
47161;SDS011;32921;53.256;8.198;2024-02-15T03:25:23;540.67;;;490.13;;
47161;SDS011;32921;53.256;8.198;2024-02-15T03:27:53;513.65;;;464.08;;
47161;SDS011;32921;53.256;8.198;2024-02-15T03:30:20;496.98;;;447.08;;
47161;SDS011;32921;53.256;8.198;2024-02-15T03:32:49;530.10;;;477.48;;
47161;SDS011;32921;53.256;8.198;2024-02-15T03:35:17;580.85;;;524.35;;
47161;SDS011;32921;53.256;8.198;2024-02-15T03:37:44;571.13;;;516.17;;
47161;SDS011;32921;53.256;8.198;2024-02-15T03:40:10;596.85;;;539.03;;
47161;SDS011;32921;53.256;8.198;2024-02-15T03:42:36;585.03;;;528.80;;
47161;SDS011;32921;53.256;8.198;2024-02-15T03:45:05;587.78;;;531.08;;
47161;SDS011;32921;53.256;8.198;2024-02-15T03:47:32;563.55;;;509.95;;
47161;SDS011;32921;53.256;8.198;2024-02-15T03:50:01;542.88;;;490.65;;
47161;SDS011;32921;53.256;8.198;2024-02-15T03:52:30;581.40;;;525.05;;
47161;SDS011;32921;53.256;8.198;2024-02-15T03:54:57;574.28;;;518.80;;
47161;SDS011;32921;53.256;8.198;2024-02-15T03:57:23;580.45;;;523.88;;
47161;SDS011;32921;53.256;8.198;2024-02-15T03:59:49;596.58;;;538.63;;
47161;SDS011;32921;53.256;8.198;2024-02-15T04:02:19;553.05;;;499.10;;
47161;SDS011;32921;53.256;8.198;2024-02-15T04:04:45;627.47;;;566.45;;
47161;SDS011;32921;53.256;8.198;2024-02-15T04:07:13;646.90;;;584.83;;
47161;SDS011;32921;53.256;8.198;2024-02-15T04:09:39;609.50;;;551.22;;
47161;SDS011;32921;53.256;8.198;2024-02-15T04:12:05;600.63;;;543.72;;
47161;SDS011;32921;53.256;8.198;2024-02-15T04:14:32;574.50;;;519.05;;
47161;SDS011;32921;53.256;8.198;2024-02-15T04:16:59;718.45;;;650.83;;
47161;SDS011;32921;53.256;8.198;2024-02-15T04:19:25;576.67;;;521.45;;
47161;SDS011;32921;53.256;8.198;2024-02-15T04:21:50;631.13;;;570.88;;
47161;SDS011;32921;53.256;8.198;2024-02-15T04:24:16;568.42;;;513.70;;
47161;SDS011;32921;53.256;8.198;2024-02-15T04:26:42;580.42;;;524.25;;
47161;SDS011;32921;53.256;8.198;2024-02-15T04:29:07;602.13;;;544.03;;
47161;SDS011;32921;53.256;8.198;2024-02-15T04:31:37;524.40;;;472.70;;
47161;SDS011;32921;53.256;8.198;2024-02-15T04:34:04;602.47;;;543.47;;
47161;SDS011;32921;53.256;8.198;2024-02-15T04:36:30;600.97;;;543.17;;
47161;SDS011;32921;53.256;8.198;2024-02-15T04:38:59;539.25;;;486.13;;
47161;SDS011;32921;53.256;8.198;2024-02-15T04:41:26;560.63;;;505.50;;
47161;SDS011;32921;53.256;8.198;2024-02-15T04:43:52;626.17;;;566.20;;
47161;SDS011;32921;53.256;8.198;2024-02-15T04:46:18;609.13;;;549.90;;
47161;SDS011;32921;53.256;8.198;2024-02-15T04:48:49;577.00;;;521.80;;
47161;SDS011;32921;53.256;8.198;2024-02-15T04:51:15;588.60;;;531.30;;
47161;SDS011;32921;53.256;8.198;2024-02-15T04:53:41;578.65;;;523.53;;
47161;SDS011;32921;53.256;8.198;2024-02-15T04:56:08;624.85;;;566.17;;
47161;SDS011;32921;53.256;8.198;2024-02-15T04:58:39;551.58;;;498.65;;
47161;SDS011;32921;53.256;8.198;2024-02-15T05:01:16;573.88;;;520.60;;
47161;SDS011;32921;53.256;8.198;2024-02-15T05:03:45;586.90;;;532.10;;
47161;SDS011;32921;53.256;8.198;2024-02-15T05:06:11;566.33;;;513.30;;
47161;SDS011;32921;53.256;8.198;2024-02-15T05:08:38;597.00;;;539.00;;
47161;SDS011;32921;53.256;8.198;2024-02-15T05:11:11;544.92;;;492.15;;
47161;SDS011;32921;53.256;8.198;2024-02-15T05:13:43;537.40;;;485.13;;
47161;SDS011;32921;53.256;8.198;2024-02-15T05:16:10;610.90;;;553.00;;
47161;SDS011;32921;53.256;8.198;2024-02-15T05:18:35;580.00;;;525.65;;
47161;SDS011;32921;53.256;8.198;2024-02-15T05:21:02;538.50;;;486.88;;
47161;SDS011;32921;53.256;8.198;2024-02-15T05:23:29;530.47;;;479.33;;
47161;SDS011;32921;53.256;8.198;2024-02-15T05:25:55;538.78;;;487.00;;
47161;SDS011;32921;53.256;8.198;2024-02-15T05:28:21;539.50;;;487.15;;
47161;SDS011;32921;53.256;8.198;2024-02-15T05:31:08;459.10;;;414.35;;
47161;SDS011;32921;53.256;8.198;2024-02-15T05:33:45;465.33;;;420.15;;
47161;SDS011;32921;53.256;8.198;2024-02-15T05:36:16;475.02;;;429.58;;
47161;SDS011;32921;53.256;8.198;2024-02-15T05:38:45;485.33;;;439.25;;
47161;SDS011;32921;53.256;8.198;2024-02-15T05:41:12;524.10;;;475.88;;
47161;SDS011;32921;53.256;8.198;2024-02-15T05:43:41;584.15;;;531.50;;
47161;SDS011;32921;53.256;8.198;2024-02-15T05:46:07;508.80;;;462.33;;
47161;SDS011;32921;53.256;8.198;2024-02-15T05:48:33;537.30;;;488.00;;
47161;SDS011;32921;53.256;8.198;2024-02-15T05:51:00;507.55;;;462.02;;
47161;SDS011;32921;53.256;8.198;2024-02-15T05:53:27;573.60;;;523.25;;
47161;SDS011;32921;53.256;8.198;2024-02-15T05:55:53;563.88;;;514.20;;
47161;SDS011;32921;53.256;8.198;2024-02-15T05:58:20;510.83;;;467.60;;
47161;SDS011;32921;53.256;8.198;2024-02-15T06:00:45;506.33;;;461.55;;
47161;SDS011;32921;53.256;8.198;2024-02-15T06:03:14;513.88;;;468.08;;
47161;SDS011;32921;53.256;8.198;2024-02-15T06:05:43;551.60;;;503.30;;
47161;SDS011;32921;53.256;8.198;2024-02-15T06:08:10;498.10;;;454.48;;
47161;SDS011;32921;53.256;8.198;2024-02-15T06:10:39;478.77;;;438.05;;
47161;SDS011;32921;53.256;8.198;2024-02-15T06:13:07;458.92;;;419.38;;
47161;SDS011;32921;53.256;8.198;2024-02-15T06:15:34;482.48;;;441.50;;
47161;SDS011;32921;53.256;8.198;2024-02-15T06:18:01;434.08;;;397.80;;
47161;SDS011;32921;53.256;8.198;2024-02-15T06:20:28;471.00;;;431.88;;
47161;SDS011;32921;53.256;8.198;2024-02-15T06:22:55;488.58;;;448.67;;
47161;SDS011;32921;53.256;8.198;2024-02-15T06:25:21;477.30;;;437.88;;
47161;SDS011;32921;53.256;8.198;2024-02-15T06:27:48;444.73;;;408.13;;
47161;SDS011;32921;53.256;8.198;2024-02-15T06:30:16;489.33;;;450.67;;
47161;SDS011;32921;53.256;8.198;2024-02-15T06:33:00;430.55;;;397.10;;
47161;SDS011;32921;53.256;8.198;2024-02-15T06:35:44;397.83;;;367.70;;
47161;SDS011;32921;53.256;8.198;2024-02-15T06:38:28;400.58;;;369.83;;
47161;SDS011;32921;53.256;8.198;2024-02-15T06:41:12;396.15;;;366.08;;
47161;SDS011;32921;53.256;8.198;2024-02-15T06:43:38;445.33;;;410.95;;
47161;SDS011;32921;53.256;8.198;2024-02-15T06:46:07;417.95;;;386.83;;
47161;SDS011;32921;53.256;8.198;2024-02-15T06:48:35;382.48;;;354.27;;
47161;SDS011;32921;53.256;8.198;2024-02-15T06:51:01;474.70;;;439.83;;
47161;SDS011;32921;53.256;8.198;2024-02-15T06:53:28;464.92;;;430.85;;
47161;SDS011;32921;53.256;8.198;2024-02-15T06:55:55;420.73;;;389.92;;
47161;SDS011;32921;53.256;8.198;2024-02-15T06:58:21;430.83;;;398.67;;
47161;SDS011;32921;53.256;8.198;2024-02-15T07:00:47;407.65;;;378.23;;
47161;SDS011;32921;53.256;8.198;2024-02-15T07:03:15;419.38;;;388.75;;
47161;SDS011;32921;53.256;8.198;2024-02-15T07:05:41;407.73;;;378.70;;
47161;SDS011;32921;53.256;8.198;2024-02-15T07:08:07;449.63;;;417.42;;
47161;SDS011;32921;53.256;8.198;2024-02-15T07:10:38;386.42;;;359.15;;
47161;SDS011;32921;53.256;8.198;2024-02-15T07:13:04;419.13;;;389.67;;
47161;SDS011;32921;53.256;8.198;2024-02-15T07:15:31;431.38;;;400.58;;
47161;SDS011;32921;53.256;8.198;2024-02-15T07:18:02;406.35;;;377.25;;
47161;SDS011;32921;53.256;8.198;2024-02-15T07:20:32;379.50;;;352.50;;
47161;SDS011;32921;53.256;8.198;2024-02-15T07:22:58;420.95;;;390.92;;
47161;SDS011;32921;53.256;8.198;2024-02-15T07:25:24;404.95;;;376.45;;
47161;SDS011;32921;53.256;8.198;2024-02-15T07:27:49;389.85;;;362.27;;
47161;SDS011;32921;53.256;8.198;2024-02-15T07:30:15;410.70;;;381.83;;
47161;SDS011;32921;53.256;8.198;2024-02-15T07:32:41;404.08;;;375.38;;
47161;SDS011;32921;53.256;8.198;2024-02-15T07:35:07;420.35;;;390.30;;
47161;SDS011;32921;53.256;8.198;2024-02-15T07:37:33;391.65;;;364.50;;
47161;SDS011;32921;53.256;8.198;2024-02-15T07:39:59;380.55;;;353.83;;
47161;SDS011;32921;53.256;8.198;2024-02-15T07:42:25;385.55;;;358.52;;
47161;SDS011;32921;53.256;8.198;2024-02-15T07:44:51;385.98;;;358.83;;
47161;SDS011;32921;53.256;8.198;2024-02-15T07:47:20;396.63;;;368.60;;
47161;SDS011;32921;53.256;8.198;2024-02-15T07:49:49;401.25;;;372.83;;
47161;SDS011;32921;53.256;8.198;2024-02-15T07:52:15;416.67;;;387.42;;
47161;SDS011;32921;53.256;8.198;2024-02-15T07:54:40;408.98;;;380.17;;
47161;SDS011;32921;53.256;8.198;2024-02-15T07:57:06;401.10;;;372.80;;
47161;SDS011;32921;53.256;8.198;2024-02-15T07:59:32;403.77;;;375.00;;
47161;SDS011;32921;53.256;8.198;2024-02-15T08:01:57;409.67;;;380.20;;
47161;SDS011;32921;53.256;8.198;2024-02-15T08:04:23;419.92;;;390.35;;
47161;SDS011;32921;53.256;8.198;2024-02-15T08:06:49;453.02;;;420.45;;
47161;SDS011;32921;53.256;8.198;2024-02-15T08:09:18;439.08;;;408.27;;
47161;SDS011;32921;53.256;8.198;2024-02-15T08:11:46;428.45;;;397.23;;
47161;SDS011;32921;53.256;8.198;2024-02-15T08:14:14;426.02;;;395.45;;
47161;SDS011;32921;53.256;8.198;2024-02-15T08:16:40;428.63;;;397.85;;
47161;SDS011;32921;53.256;8.198;2024-02-15T08:19:06;425.55;;;395.08;;
47161;SDS011;32921;53.256;8.198;2024-02-15T08:21:32;442.23;;;410.00;;
47161;SDS011;32921;53.256;8.198;2024-02-15T08:24:00;412.80;;;382.88;;
47161;SDS011;32921;53.256;8.198;2024-02-15T08:26:33;437.98;;;406.77;;
47161;SDS011;32921;53.256;8.198;2024-02-15T08:29:02;421.95;;;391.05;;
47161;SDS011;32921;53.256;8.198;2024-02-15T08:31:28;472.63;;;437.75;;
47161;SDS011;32921;53.256;8.198;2024-02-15T08:33:58;461.65;;;427.77;;
47161;SDS011;32921;53.256;8.198;2024-02-15T08:36:25;453.83;;;420.35;;
47161;SDS011;32921;53.256;8.198;2024-02-15T08:38:51;460.15;;;426.02;;
47161;SDS011;32921;53.256;8.198;2024-02-15T08:41:16;451.95;;;418.27;;
47161;SDS011;32921;53.256;8.198;2024-02-15T08:43:46;424.77;;;392.77;;
47161;SDS011;32921;53.256;8.198;2024-02-15T08:46:15;398.33;;;368.33;;
47161;SDS011;32921;53.256;8.198;2024-02-15T08:48:40;415.73;;;383.60;;
47161;SDS011;32921;53.256;8.198;2024-02-15T08:51:06;446.02;;;411.88;;
47161;SDS011;32921;53.256;8.198;2024-02-15T08:53:34;464.52;;;429.33;;
47161;SDS011;32921;53.256;8.198;2024-02-15T08:56:02;454.90;;;420.48;;
47161;SDS011;32921;53.256;8.198;2024-02-15T08:58:29;427.20;;;394.52;;
47161;SDS011;32921;53.256;8.198;2024-02-15T09:00:57;458.70;;;422.33;;
47161;SDS011;32921;53.256;8.198;2024-02-15T09:03:24;500.77;;;460.48;;
47161;SDS011;32921;53.256;8.198;2024-02-15T09:05:50;497.20;;;457.75;;
47161;SDS011;32921;53.256;8.198;2024-02-15T09:08:16;472.75;;;434.63;;
47161;SDS011;32921;53.256;8.198;2024-02-15T09:10:45;470.15;;;432.25;;
47161;SDS011;32921;53.256;8.198;2024-02-15T09:13:12;486.75;;;447.38;;
47161;SDS011;32921;53.256;8.198;2024-02-15T09:15:37;500.85;;;460.33;;
47161;SDS011;32921;53.256;8.198;2024-02-15T09:18:04;520.38;;;477.48;;
47161;SDS011;32921;53.256;8.198;2024-02-15T09:20:30;514.42;;;472.17;;
47161;SDS011;32921;53.256;8.198;2024-02-15T09:22:57;546.38;;;501.13;;
47161;SDS011;32921;53.256;8.198;2024-02-15T09:25:23;551.03;;;504.63;;
47161;SDS011;32921;53.256;8.198;2024-02-15T09:27:49;479.73;;;439.73;;
47161;SDS011;32921;53.256;8.198;2024-02-15T09:30:17;518.53;;;474.83;;
47161;SDS011;32921;53.256;8.198;2024-02-15T09:32:43;588.30;;;538.95;;
47161;SDS011;32921;53.256;8.198;2024-02-15T09:35:11;582.55;;;533.90;;
47161;SDS011;32921;53.256;8.198;2024-02-15T09:37:38;576.53;;;527.72;;
47161;SDS011;32921;53.256;8.198;2024-02-15T09:40:09;595.50;;;542.63;;
47161;SDS011;32921;53.256;8.198;2024-02-15T09:42:37;590.67;;;537.15;;
47161;SDS011;32921;53.256;8.198;2024-02-15T09:45:04;616.45;;;560.17;;
47161;SDS011;32921;53.256;8.198;2024-02-15T09:47:37;573.03;;;519.97;;
47161;SDS011;32921;53.256;8.198;2024-02-15T09:50:07;632.47;;;575.40;;
47161;SDS011;32921;53.256;8.198;2024-02-15T09:52:36;566.90;;;514.28;;
47161;SDS011;32921;53.256;8.198;2024-02-15T09:55:09;611.33;;;555.67;;
47161;SDS011;32921;53.256;8.198;2024-02-15T09:57:45;549.33;;;498.92;;
47161;SDS011;32921;53.256;8.198;2024-02-15T10:00:11;545.92;;;495.80;;
47161;SDS011;32921;53.256;8.198;2024-02-15T10:02:42;543.60;;;492.67;;
47161;SDS011;32921;53.256;8.198;2024-02-15T10:05:23;504.65;;;458.63;;
47161;SDS011;32921;53.256;8.198;2024-02-15T10:07:48;553.85;;;505.33;;
47161;SDS011;32921;53.256;8.198;2024-02-15T10:10:17;544.42;;;498.05;;
47161;SDS011;32921;53.256;8.198;2024-02-15T10:12:44;540.83;;;493.52;;
47161;SDS011;32921;53.256;8.198;2024-02-15T10:17:59;534.80;;;489.20;;
47161;SDS011;32921;53.256;8.198;2024-02-15T10:20:25;514.60;;;470.30;;
47161;SDS011;32921;53.256;8.198;2024-02-15T10:25:23;501.67;;;458.88;;
47161;SDS011;32921;53.256;8.198;2024-02-15T10:27:52;527.05;;;482.67;;
47161;SDS011;32921;53.256;8.198;2024-02-15T10:30:32;495.63;;;453.65;;
47161;SDS011;32921;53.256;8.198;2024-02-15T10:33:02;561.67;;;513.40;;
47161;SDS011;32921;53.256;8.198;2024-02-15T10:35:28;536.85;;;490.75;;
47161;SDS011;32921;53.256;8.198;2024-02-15T10:38:04;549.78;;;502.13;;
47161;SDS011;32921;53.256;8.198;2024-02-15T10:40:35;520.30;;;474.08;;
47161;SDS011;32921;53.256;8.198;2024-02-15T10:43:07;521.20;;;475.55;;
47161;SDS011;32921;53.256;8.198;2024-02-15T10:45:38;502.90;;;459.70;;
47161;SDS011;32921;53.256;8.198;2024-02-15T10:48:08;513.70;;;470.27;;
47161;SDS011;32921;53.256;8.198;2024-02-15T10:50:34;508.13;;;464.40;;
47161;SDS011;32921;53.256;8.198;2024-02-15T10:53:01;540.35;;;493.80;;
47161;SDS011;32921;53.256;8.198;2024-02-15T10:55:45;528.97;;;483.38;;
47161;SDS011;32921;53.256;8.198;2024-02-15T10:58:21;498.45;;;455.20;;
47161;SDS011;32921;53.256;8.198;2024-02-15T11:00:51;553.92;;;507.23;;
47161;SDS011;32921;53.256;8.198;2024-02-15T11:03:27;520.17;;;475.55;;
47161;SDS011;32921;53.256;8.198;2024-02-15T11:05:59;485.30;;;443.70;;
47161;SDS011;32921;53.256;8.198;2024-02-15T11:08:27;462.90;;;424.40;;
47161;SDS011;32921;53.256;8.198;2024-02-15T11:10:53;482.52;;;443.08;;
47161;SDS011;32921;53.256;8.198;2024-02-15T11:13:20;473.15;;;435.40;;
47161;SDS011;32921;53.256;8.198;2024-02-15T11:15:46;506.83;;;465.95;;
47161;SDS011;32921;53.256;8.198;2024-02-15T11:18:37;483.23;;;444.80;;
47161;SDS011;32921;53.256;8.198;2024-02-15T11:21:14;421.67;;;387.40;;
47161;SDS011;32921;53.256;8.198;2024-02-15T11:23:41;471.63;;;434.13;;
47161;SDS011;32921;53.256;8.198;2024-02-15T11:26:42;518.55;;;477.55;;
47161;SDS011;32921;53.256;8.198;2024-02-15T11:29:47;436.83;;;401.95;;
47161;SDS011;32921;53.256;8.198;2024-02-15T11:41:05;496.40;;;454.63;;
47161;SDS011;32921;53.256;8.198;2024-02-15T11:43:06;541.88;;;497.73;;
47161;SDS011;32921;53.256;8.198;2024-02-15T11:45:34;552.78;;;506.38;;
47161;SDS011;32921;53.256;8.198;2024-02-15T11:48:09;582.05;;;530.67;;
47161;SDS011;32921;53.256;8.198;2024-02-15T11:50:38;607.42;;;553.72;;
47161;SDS011;32921;53.256;8.198;2024-02-15T11:53:05;657.40;;;596.22;;
47161;SDS011;32921;53.256;8.198;2024-02-15T11:55:34;686.10;;;623.55;;
47161;SDS011;32921;53.256;8.198;2024-02-15T11:58:04;701.08;;;637.00;;
47161;SDS011;32921;53.256;8.198;2024-02-15T12:00:41;714.03;;;648.92;;
47161;SDS011;32921;53.256;8.198;2024-02-15T12:03:26;739.58;;;672.13;;
47161;SDS011;32921;53.256;8.198;2024-02-15T12:06:10;762.33;;;693.97;;
47161;SDS011;32921;53.256;8.198;2024-02-15T12:08:54;781.50;;;710.47;;
47161;SDS011;32921;53.256;8.198;2024-02-15T12:11:39;808.33;;;735.30;;
47161;SDS011;32921;53.256;8.198;2024-02-15T12:14:24;846.13;;;770.35;;
47161;SDS011;32921;53.256;8.198;2024-02-15T12:17:09;798.03;;;729.03;;
47161;SDS011;32921;53.256;8.198;2024-02-15T12:19:55;782.53;;;715.83;;
47161;SDS011;32921;53.256;8.198;2024-02-15T12:22:31;799.95;;;731.05;;
47161;SDS011;32921;53.256;8.198;2024-02-15T12:25:02;796.88;;;728.50;;
47161;SDS011;32921;53.256;8.198;2024-02-15T12:27:37;798.92;;;728.80;;
47161;SDS011;32921;53.256;8.198;2024-02-15T12:30:04;786.05;;;717.50;;
47161;SDS011;32921;53.256;8.198;2024-02-15T12:32:32;802.05;;;731.05;;
47161;SDS011;32921;53.256;8.198;2024-02-15T12:35:40;800.60;;;729.10;;
47161;SDS011;32921;53.256;8.198;2024-02-15T12:38:01;744.40;;;677.90;;
47161;SDS011;32921;53.256;8.198;2024-02-15T12:40:32;765.00;;;696.42;;
47161;SDS011;32921;53.256;8.198;2024-02-15T12:42:58;827.65;;;754.15;;
47161;SDS011;32921;53.256;8.198;2024-02-15T12:45:25;771.53;;;702.25;;
47161;SDS011;32921;53.256;8.198;2024-02-15T12:47:53;795.50;;;724.05;;
47161;SDS011;32921;53.256;8.198;2024-02-15T12:50:20;799.08;;;728.65;;
47161;SDS011;32921;53.256;8.198;2024-02-15T12:52:50;726.92;;;661.30;;
47161;SDS011;32921;53.256;8.198;2024-02-15T12:57:43;756.00;;;688.28;;
47161;SDS011;32921;53.256;8.198;2024-02-15T13:00:15;745.35;;;678.97;;
47161;SDS011;32921;53.256;8.198;2024-02-15T13:02:44;742.65;;;676.22;;
47161;SDS011;32921;53.256;8.198;2024-02-15T13:05:11;758.35;;;690.38;;
47161;SDS011;32921;53.256;8.198;2024-02-15T13:07:37;714.42;;;650.83;;
47161;SDS011;32921;53.256;8.198;2024-02-15T13:10:03;712.05;;;648.30;;
47161;SDS011;32921;53.256;8.198;2024-02-15T13:12:32;732.72;;;665.90;;
47161;SDS011;32921;53.256;8.198;2024-02-15T13:14:59;744.10;;;677.03;;
47161;SDS011;32921;53.256;8.198;2024-02-15T13:17:28;752.60;;;684.97;;
47161;SDS011;32921;53.256;8.198;2024-02-15T13:19:54;766.03;;;696.83;;
47161;SDS011;32921;53.256;8.198;2024-02-15T13:22:27;765.95;;;696.65;;
47161;SDS011;32921;53.256;8.198;2024-02-15T13:24:53;787.80;;;717.60;;
47161;SDS011;32921;53.256;8.198;2024-02-15T13:27:20;778.08;;;708.35;;
47161;SDS011;32921;53.256;8.198;2024-02-15T13:29:48;772.20;;;702.85;;
47161;SDS011;32921;53.256;8.198;2024-02-15T13:32:13;812.13;;;739.05;;
47161;SDS011;32921;53.256;8.198;2024-02-15T13:34:41;784.65;;;713.17;;
47161;SDS011;32921;53.256;8.198;2024-02-15T13:37:07;813.75;;;740.40;;
47161;SDS011;32921;53.256;8.198;2024-02-15T13:39:33;829.40;;;755.90;;
47161;SDS011;32921;53.256;8.198;2024-02-15T13:42:01;767.85;;;698.75;;
47161;SDS011;32921;53.256;8.198;2024-02-15T13:44:27;793.83;;;722.80;;
47161;SDS011;32921;53.256;8.198;2024-02-15T13:46:55;820.53;;;747.78;;
47161;SDS011;32921;53.256;8.198;2024-02-15T13:49:22;801.45;;;730.08;;
47161;SDS011;32921;53.256;8.198;2024-02-15T13:51:47;805.08;;;735.38;;
47161;SDS011;32921;53.256;8.198;2024-02-15T13:54:14;797.05;;;728.38;;
47161;SDS011;32921;53.256;8.198;2024-02-15T13:56:39;795.75;;;728.08;;
47161;SDS011;32921;53.256;8.198;2024-02-15T13:59:05;805.08;;;737.78;;
47161;SDS011;32921;53.256;8.198;2024-02-15T14:01:31;763.33;;;698.55;;
47161;SDS011;32921;53.256;8.198;2024-02-15T14:03:57;768.22;;;704.88;;
47161;SDS011;32921;53.256;8.198;2024-02-15T14:06:22;782.20;;;716.70;;
47161;SDS011;32921;53.256;8.198;2024-02-15T14:08:48;782.72;;;716.72;;
47161;SDS011;32921;53.256;8.198;2024-02-15T14:11:15;752.00;;;689.40;;
47161;SDS011;32921;53.256;8.198;2024-02-15T14:13:42;764.55;;;701.75;;
47161;SDS011;32921;53.256;8.198;2024-02-15T14:16:08;700.78;;;642.90;;
47161;SDS011;32921;53.256;8.198;2024-02-15T14:18:33;716.38;;;658.63;;